sensor_id;sensor_type;location;lat;lon;timestamp;pressure;altitude;pressure_sealevel;temperature;humidity
50550;BME280;36505;52.512;13.460;2023-02-17T00:00:24;101417.72;;;8.06;73.91
50550;BME280;36505;52.512;13.460;2023-02-17T00:02:54;101426.56;;;8.08;73.97
50550;BME280;36505;52.512;13.460;2023-02-17T00:05:20;101420.69;;;8.11;74.20
50550;BME280;36505;52.512;13.460;2023-02-17T00:07:45;101430.56;;;8.12;74.53
50550;BME280;36505;52.512;13.460;2023-02-17T00:10:11;101425.31;;;8.10;75.58
50550;BME280;36505;52.512;13.460;2023-02-17T00:12:36;101415.84;;;8.06;76.13
50550;BME280;36505;52.512;13.460;2023-02-17T00:15:02;101408.31;;;8.08;77.50
50550;BME280;36505;52.512;13.460;2023-02-17T00:17:28;101402.66;;;8.03;78.01
50550;BME280;36505;52.512;13.460;2023-02-17T00:19:53;101403.25;;;7.99;78.99
50550;BME280;36505;52.512;13.460;2023-02-17T00:22:22;101394.03;;;7.93;79.42
50550;BME280;36505;52.512;13.460;2023-02-17T00:24:47;101392.59;;;7.90;79.78
50550;BME280;36505;52.512;13.460;2023-02-17T00:27:13;101391.31;;;7.86;79.93
50550;BME280;36505;52.512;13.460;2023-02-17T00:29:38;101386.91;;;7.85;79.91
50550;BME280;36505;52.512;13.460;2023-02-17T00:32:04;101386.06;;;7.85;80.17
50550;BME280;36505;52.512;13.460;2023-02-17T00:34:29;101381.91;;;7.82;80.16
50550;BME280;36505;52.512;13.460;2023-02-17T00:36:55;101377.91;;;7.85;80.37
50550;BME280;36505;52.512;13.460;2023-02-17T00:39:20;101382.94;;;7.81;80.84
50550;BME280;36505;52.512;13.460;2023-02-17T00:41:46;101378.34;;;7.82;80.87
50550;BME280;36505;52.512;13.460;2023-02-17T00:44:16;101381.47;;;7.79;81.26
50550;BME280;36505;52.512;13.460;2023-02-17T00:46:42;101376.44;;;7.76;81.46
50550;BME280;36505;52.512;13.460;2023-02-17T00:49:14;101376.84;;;7.73;81.55
50550;BME280;36505;52.512;13.460;2023-02-17T00:51:40;101371.19;;;7.74;81.60
50550;BME280;36505;52.512;13.460;2023-02-17T00:54:05;101366.16;;;7.71;81.57
50550;BME280;36505;52.512;13.460;2023-02-17T00:56:30;101367.00;;;7.72;81.58
50550;BME280;36505;52.512;13.460;2023-02-17T00:58:56;101358.81;;;7.72;82.13
50550;BME280;36505;52.512;13.460;2023-02-17T01:01:21;101366.16;;;7.71;82.10
50550;BME280;36505;52.512;13.460;2023-02-17T01:03:47;101351.09;;;7.69;82.33
50550;BME280;36505;52.512;13.460;2023-02-17T01:06:21;101353.16;;;7.67;82.52
50550;BME280;36505;52.512;13.460;2023-02-17T01:08:47;101336.19;;;7.65;82.70
50550;BME280;36505;52.512;13.460;2023-02-17T01:11:21;101332.66;;;7.64;82.91
50550;BME280;36505;52.512;13.460;2023-02-17T01:13:47;101333.25;;;7.60;83.16
50550;BME280;36505;52.512;13.460;2023-02-17T01:16:18;101331.56;;;7.59;83.06
50550;BME280;36505;52.512;13.460;2023-02-17T01:18:44;101322.78;;;7.57;83.35
50550;BME280;36505;52.512;13.460;2023-02-17T01:21:21;101325.94;;;7.53;82.99
50550;BME280;36505;52.512;13.460;2023-02-17T01:23:48;101325.53;;;7.57;83.12
50550;BME280;36505;52.512;13.460;2023-02-17T01:26:16;101322.56;;;7.58;82.83
50550;BME280;36505;52.512;13.460;2023-02-17T01:28:42;101321.13;;;7.56;82.96
50550;BME280;36505;52.512;13.460;2023-02-17T01:31:08;101319.84;;;7.58;83.16
50550;BME280;36505;52.512;13.460;2023-02-17T01:33:34;101310.63;;;7.59;83.42
50550;BME280;36505;52.512;13.460;2023-02-17T01:36:04;101291.97;;;7.56;83.09
50550;BME280;36505;52.512;13.460;2023-02-17T01:38:30;101302.88;;;7.63;83.03
50550;BME280;36505;52.512;13.460;2023-02-17T01:40:56;101299.94;;;7.64;83.06
50550;BME280;36505;52.512;13.460;2023-02-17T01:43:21;101301.81;;;7.64;82.99
50550;BME280;36505;52.512;13.460;2023-02-17T01:45:57;101298.25;;;7.63;82.72
50550;BME280;36505;52.512;13.460;2023-02-17T01:48:30;101298.66;;;7.60;82.96
50550;BME280;36505;52.512;13.460;2023-02-17T01:51:05;101293.22;;;7.60;83.15
50550;BME280;36505;52.512;13.460;2023-02-17T01:56:04;101287.34;;;7.63;83.29
50550;BME280;36505;52.512;13.460;2023-02-17T01:58:31;101277.91;;;7.59;83.03
50550;BME280;36505;52.512;13.460;2023-02-17T02:00:59;101293.66;;;7.64;83.01
50550;BME280;36505;52.512;13.460;2023-02-17T02:03:26;101281.47;;;7.60;83.20
50550;BME280;36505;52.512;13.460;2023-02-17T02:05:52;101282.31;;;7.67;83.70
50550;BME280;36505;52.512;13.460;2023-02-17T02:08:18;101280.63;;;7.66;83.88
50550;BME280;36505;52.512;13.460;2023-02-17T02:10:43;101275.16;;;7.66;84.17
50550;BME280;36505;52.512;13.460;2023-02-17T02:13:09;101266.78;;;7.67;84.39
50550;BME280;36505;52.512;13.460;2023-02-17T02:15:52;101261.34;;;7.67;84.61
50550;BME280;36505;52.512;13.460;2023-02-17T02:18:34;101262.19;;;7.68;84.97
50550;BME280;36505;52.512;13.460;2023-02-17T02:21:31;101252.97;;;7.69;85.70
50550;BME280;36505;52.512;13.460;2023-02-17T02:35:21;101208.34;;;7.50;88.06
50550;BME280;36505;52.512;13.460;2023-02-17T02:38:30;101204.34;;;7.46;88.46
50550;BME280;36505;52.512;13.460;2023-02-17T02:40:56;101202.91;;;7.43;88.82
50550;BME280;36505;52.512;13.460;2023-02-17T02:43:24;101194.28;;;7.46;89.22
50550;BME280;36505;52.512;13.460;2023-02-17T02:45:50;101199.56;;;7.41;89.54
50550;BME280;36505;52.512;13.460;2023-02-17T02:48:15;101204.81;;;7.36;89.68
50550;BME280;36505;52.512;13.460;2023-02-17T03:03:34;101175.44;;;7.38;90.26
50550;BME280;36505;52.512;13.460;2023-02-17T03:06:15;101173.78;;;7.31;90.88
50550;BME280;36505;52.512;13.460;2023-02-17T03:08:58;101169.19;;;7.25;91.56
50550;BME280;36505;52.512;13.460;2023-02-17T03:11:25;101163.53;;;7.26;91.32
50550;BME280;36505;52.512;13.460;2023-02-17T03:14:11;101152.44;;;7.21;91.68
50550;BME280;36505;52.512;13.460;2023-02-17T03:16:38;101141.97;;;7.18;91.79
50550;BME280;36505;52.512;13.460;2023-02-17T03:19:05;101143.63;;;7.19;91.58
50550;BME280;36505;52.512;13.460;2023-02-17T03:21:41;101146.81;;;7.16;92.04
50550;BME280;36505;52.512;13.460;2023-02-17T03:24:08;101148.44;;;7.17;92.08
50550;BME280;36505;52.512;13.460;2023-02-17T03:26:33;101138.63;;;7.16;92.13
50550;BME280;36505;52.512;13.460;2023-02-17T03:28:59;101140.72;;;7.14;91.98
50550;BME280;36505;52.512;13.460;2023-02-17T03:31:25;101140.28;;;7.17;92.01
50550;BME280;36505;52.512;13.460;2023-02-17T03:33:51;101149.94;;;7.20;91.95
50550;BME280;36505;52.512;13.460;2023-02-17T03:36:16;101148.25;;;7.19;91.83
50550;BME280;36505;52.512;13.460;2023-02-17T03:38:41;101153.91;;;7.17;92.01
50550;BME280;36505;52.512;13.460;2023-02-17T03:41:07;101157.47;;;7.18;92.10
50550;BME280;36505;52.512;13.460;2023-02-17T03:43:32;101139.06;;;7.13;91.93
50550;BME280;36505;52.512;13.460;2023-02-17T03:45:58;101131.91;;;7.19;91.98
50550;BME280;36505;52.512;13.460;2023-02-17T03:48:23;101143.63;;;7.19;92.11
50550;BME280;36505;52.512;13.460;2023-02-17T03:50:49;101134.44;;;7.20;92.14
50550;BME280;36505;52.512;13.460;2023-02-17T03:53:14;101135.47;;;7.26;92.30
50550;BME280;36505;52.512;13.460;2023-02-17T03:55:39;101135.25;;;7.27;92.41
50550;BME280;36505;52.512;13.460;2023-02-17T03:58:05;101128.31;;;7.25;92.55
50550;BME280;36505;52.512;13.460;2023-02-17T04:00:30;101130.00;;;7.26;92.47
50550;BME280;36505;52.512;13.460;2023-02-17T04:02:55;101134.19;;;7.28;92.69
50550;BME280;36505;52.512;13.460;2023-02-17T04:05:22;101129.78;;;7.34;92.63
50550;BME280;36505;52.512;13.460;2023-02-17T04:07:47;101123.50;;;7.27;92.50
50550;BME280;36505;52.512;13.460;2023-02-17T04:10:13;101124.34;;;7.34;92.57
50550;BME280;36505;52.512;13.460;2023-02-17T04:12:38;101120.97;;;7.32;93.07
50550;BME280;36505;52.512;13.460;2023-02-17T04:15:04;101115.13;;;7.28;93.52
50550;BME280;36505;52.512;13.460;2023-02-17T04:17:30;101116.38;;;7.26;93.47
50550;BME280;36505;52.512;13.460;2023-02-17T04:19:55;101111.56;;;7.28;93.62
50550;BME280;36505;52.512;13.460;2023-02-17T04:22:20;101103.81;;;7.25;93.83
50550;BME280;36505;52.512;13.460;2023-02-17T04:24:46;101119.13;;;7.26;93.95
50550;BME280;36505;52.512;13.460;2023-02-17T04:27:11;101103.81;;;7.25;94.02
50550;BME280;36505;52.512;13.460;2023-02-17T04:29:37;101104.66;;;7.25;94.08
50550;BME280;36505;52.512;13.460;2023-02-17T04:32:02;101107.16;;;7.27;94.24
50550;BME280;36505;52.512;13.460;2023-02-17T04:34:28;101097.94;;;7.28;94.34
50550;BME280;36505;52.512;13.460;2023-02-17T04:36:53;101081.81;;;7.26;94.39
50550;BME280;36505;52.512;13.460;2023-02-17T04:39:18;101084.97;;;7.30;94.68
50550;BME280;36505;52.512;13.460;2023-02-17T04:41:44;101080.31;;;7.30;94.51
50550;BME280;36505;52.512;13.460;2023-02-17T04:44:09;101082.00;;;7.31;94.62
50550;BME280;36505;52.512;13.460;2023-02-17T04:46:35;101097.31;;;7.32;94.54
50550;BME280;36505;52.512;13.460;2023-02-17T04:49:00;101095.63;;;7.31;94.72
50550;BME280;36505;52.512;13.460;2023-02-17T04:51:25;101103.38;;;7.34;94.81
50550;BME280;36505;52.512;13.460;2023-02-17T04:53:51;101091.00;;;7.38;94.77
50550;BME280;36505;52.512;13.460;2023-02-17T04:56:16;101076.97;;;7.35;95.03
50550;BME280;36505;52.512;13.460;2023-02-17T04:58:42;101077.38;;;7.38;94.94
50550;BME280;36505;52.512;13.460;2023-02-17T05:01:07;101073.59;;;7.39;95.08
50550;BME280;36505;52.512;13.460;2023-02-17T05:03:32;101076.53;;;7.38;95.09
50550;BME280;36505;52.512;13.460;2023-02-17T05:05:58;101068.59;;;7.36;95.30
50550;BME280;36505;52.512;13.460;2023-02-17T05:08:23;101075.47;;;7.39;95.41
50550;BME280;36505;52.512;13.460;2023-02-17T05:10:50;101076.31;;;7.39;95.63
50550;BME280;36505;52.512;13.460;2023-02-17T05:13:16;101080.09;;;7.38;95.69
50550;BME280;36505;52.512;13.460;2023-02-17T05:15:45;101071.72;;;7.40;95.74
50550;BME280;36505;52.512;13.460;2023-02-17T05:18:11;101059.13;;;7.39;95.99
50550;BME280;36505;52.512;13.460;2023-02-17T05:20:37;101059.34;;;7.37;95.83
50550;BME280;36505;52.512;13.460;2023-02-17T05:23:03;101060.19;;;7.38;95.89
50550;BME280;36505;52.512;13.460;2023-02-17T05:25:29;101042.19;;;7.30;95.83
50550;BME280;36505;52.512;13.460;2023-02-17T05:27:54;101049.72;;;7.35;95.91
50550;BME280;36505;52.512;13.460;2023-02-17T05:30:19;101049.28;;;7.38;96.08
50550;BME280;36505;52.512;13.460;2023-02-17T05:32:45;101044.69;;;7.32;96.31
50550;BME280;36505;52.512;13.460;2023-02-17T05:35:10;101051.41;;;7.36;96.14
50550;BME280;36505;52.512;13.460;2023-02-17T05:37:36;101043.00;;;7.37;96.11
50550;BME280;36505;52.512;13.460;2023-02-17T05:40:01;101050.75;;;7.40;96.02
50550;BME280;36505;52.512;13.460;2023-02-17T05:42:27;101048.03;;;7.40;96.15
50550;BME280;36505;52.512;13.460;2023-02-17T05:44:56;101038.59;;;7.43;96.16
50550;BME280;36505;52.512;13.460;2023-02-17T05:47:22;101036.72;;;7.43;95.67
50550;BME280;36505;52.512;13.460;2023-02-17T05:49:47;101036.25;;;7.46;95.95
50550;BME280;36505;52.512;13.460;2023-02-17T05:52:13;101044.00;;;7.49;95.87
50550;BME280;36505;52.512;13.460;2023-02-17T05:54:38;101045.06;;;7.48;95.56
50550;BME280;36505;52.512;13.460;2023-02-17T05:57:03;101038.56;;;7.49;95.63
50550;BME280;36505;52.512;13.460;2023-02-17T05:59:29;101038.16;;;7.46;95.39
50550;BME280;36505;52.512;13.460;2023-02-17T06:01:54;101039.16;;;7.51;95.59
50550;BME280;36505;52.512;13.460;2023-02-17T06:04:19;101043.34;;;7.54;95.44
50550;BME280;36505;52.512;13.460;2023-02-17T06:06:45;101022.81;;;7.51;95.08
50550;BME280;36505;52.512;13.460;2023-02-17T06:09:10;101028.88;;;7.53;95.15
50550;BME280;36505;52.512;13.460;2023-02-17T06:11:36;101024.69;;;7.51;95.35
50550;BME280;36505;52.512;13.460;2023-02-17T06:14:01;101023.44;;;7.53;95.57
50550;BME280;36505;52.512;13.460;2023-02-17T06:16:27;101023.91;;;7.50;95.30
50550;BME280;36505;52.512;13.460;2023-02-17T06:18:52;101007.97;;;7.47;95.61
50550;BME280;36505;52.512;13.460;2023-02-17T06:21:18;101009.81;;;7.53;95.69
50550;BME280;36505;52.512;13.460;2023-02-17T06:23:43;101007.31;;;7.52;95.70
50550;BME280;36505;52.512;13.460;2023-02-17T06:26:08;101007.75;;;7.49;95.74
50550;BME280;36505;52.512;13.460;2023-02-17T06:28:34;101007.97;;;7.47;95.30
50550;BME280;36505;52.512;13.460;2023-02-17T06:30:59;101000.19;;;7.51;95.61
50550;BME280;36505;52.512;13.460;2023-02-17T06:33:24;101002.09;;;7.50;95.31
50550;BME280;36505;52.512;13.460;2023-02-17T06:35:50;101006.47;;;7.51;95.32
50550;BME280;36505;52.512;13.460;2023-02-17T06:38:16;100999.53;;;7.56;95.13
50550;BME280;36505;52.512;13.460;2023-02-17T06:40:43;101003.09;;;7.56;94.84
50550;BME280;36505;52.512;13.460;2023-02-17T06:43:08;101007.69;;;7.62;94.72
50550;BME280;36505;52.512;13.460;2023-02-17T06:45:35;100999.88;;;7.66;94.53
50550;BME280;36505;52.512;13.460;2023-02-17T06:48:00;100987.97;;;7.60;94.42
50550;BME280;36505;52.512;13.460;2023-02-17T06:50:26;101006.19;;;7.66;94.50
50550;BME280;36505;52.512;13.460;2023-02-17T06:52:51;101000.50;;;7.68;94.50
50550;BME280;36505;52.512;13.460;2023-02-17T06:55:17;100996.09;;;7.67;94.29
50550;BME280;36505;52.512;13.460;2023-02-17T06:57:42;101000.91;;;7.71;94.63
50550;BME280;36505;52.512;13.460;2023-02-17T07:00:08;100994.63;;;7.71;94.35
50550;BME280;36505;52.512;13.460;2023-02-17T07:02:36;100986.88;;;7.68;94.36
50550;BME280;36505;52.512;13.460;2023-02-17T07:05:02;100988.72;;;7.74;94.33
50550;BME280;36505;52.512;13.460;2023-02-17T07:07:27;100989.13;;;7.77;94.08
50550;BME280;36505;52.512;13.460;2023-02-17T07:09:52;100985.94;;;7.80;93.94
50550;BME280;36505;52.512;13.460;2023-02-17T07:12:18;100972.72;;;7.84;93.72
50550;BME280;36505;52.512;13.460;2023-02-17T07:14:43;100971.91;;;7.83;93.57
50550;BME280;36505;52.512;13.460;2023-02-17T07:17:08;100983.19;;;7.87;93.69
50550;BME280;36505;52.512;13.460;2023-02-17T07:19:34;100979.19;;;7.89;93.66
50550;BME280;36505;52.512;13.460;2023-02-17T07:21:59;100979.56;;;7.93;93.76
50550;BME280;36505;52.512;13.460;2023-02-17T07:24:25;100985.63;;;7.95;93.51
50550;BME280;36505;52.512;13.460;2023-02-17T07:26:50;100983.28;;;7.99;93.44
50550;BME280;36505;52.512;13.460;2023-02-17T07:29:17;100973.63;;;8.03;93.06
50550;BME280;36505;52.512;13.460;2023-02-17T07:31:43;100966.44;;;8.08;92.95
50550;BME280;36505;52.512;13.460;2023-02-17T07:34:08;100971.22;;;8.13;92.85
50550;BME280;36505;52.512;13.460;2023-02-17T07:36:33;100974.78;;;8.13;93.15
50550;BME280;36505;52.512;13.460;2023-02-17T07:38:59;100962.59;;;8.16;92.83
50550;BME280;36505;52.512;13.460;2023-02-17T07:41:25;100969.06;;;8.21;92.55
50550;BME280;36505;52.512;13.460;2023-02-17T07:43:54;100969.47;;;8.25;92.46
50550;BME280;36505;52.512;13.460;2023-02-17T07:46:20;100961.03;;;8.26;92.48
50550;BME280;36505;52.512;13.460;2023-02-17T07:48:46;100954.53;;;8.27;92.31
50550;BME280;36505;52.512;13.460;2023-02-17T07:51:17;100941.94;;;8.26;92.00
50550;BME280;36505;52.512;13.460;2023-02-17T07:53:43;100951.38;;;8.30;91.91
50550;BME280;36505;52.512;13.460;2023-02-17T07:56:11;100946.31;;;8.34;91.65
50550;BME280;36505;52.512;13.460;2023-02-17T07:58:40;100935.19;;;8.29;91.75
50550;BME280;36505;52.512;13.460;2023-02-17T08:03:31;100946.69;;;8.38;91.72
50550;BME280;36505;52.512;13.460;2023-02-17T08:05:57;100936.56;;;8.45;92.89
50550;BME280;36505;52.512;13.460;2023-02-17T08:08:23;100939.44;;;8.50;93.50
50550;BME280;36505;52.512;13.460;2023-02-17T08:11:11;100943.53;;;8.59;92.95
50550;BME280;36505;52.512;13.460;2023-02-17T08:13:55;100942.63;;;8.65;92.75
50550;BME280;36505;52.512;13.460;2023-02-17T08:16:20;100947.88;;;8.66;92.37
50550;BME280;36505;52.512;13.460;2023-02-17T08:18:45;100947.63;;;8.68;91.84
50550;BME280;36505;52.512;13.460;2023-02-17T08:21:11;100953.84;;;8.75;91.74
50550;BME280;36505;52.512;13.460;2023-02-17T08:23:36;100944.38;;;8.78;91.84
50550;BME280;36505;52.512;13.460;2023-02-17T08:26:02;100948.09;;;8.83;91.25
50550;BME280;36505;52.512;13.460;2023-02-17T08:28:28;100943.59;;;8.89;91.16
50550;BME280;36505;52.512;13.460;2023-02-17T08:30:54;100943.78;;;8.94;91.01
50550;BME280;36505;52.512;13.460;2023-02-17T08:33:19;100937.00;;;8.96;90.67
50550;BME280;36505;52.512;13.460;2023-02-17T08:35:45;100934.66;;;9.00;90.64
50550;BME280;36505;52.512;13.460;2023-02-17T08:38:11;100927.44;;;9.05;90.82
50550;BME280;36505;52.512;13.460;2023-02-17T08:40:37;100932.44;;;9.08;91.19
50550;BME280;36505;52.512;13.460;2023-02-17T08:43:02;100931.38;;;9.09;90.81
50550;BME280;36505;52.512;13.460;2023-02-17T08:45:28;100929.25;;;9.11;90.98
50550;BME280;36505;52.512;13.460;2023-02-17T08:47:54;100924.41;;;9.14;90.93
50550;BME280;36505;52.512;13.460;2023-02-17T08:50:20;100922.13;;;9.10;91.02
50550;BME280;36505;52.512;13.460;2023-02-17T08:52:46;100921.50;;;9.08;91.53
50550;BME280;36505;52.512;13.460;2023-02-17T08:55:12;100918.75;;;9.08;91.63
50550;BME280;36505;52.512;13.460;2023-02-17T08:57:37;100913.91;;;9.10;91.83
50550;BME280;36505;52.512;13.460;2023-02-17T09:00:06;100917.25;;;9.13;91.87
50550;BME280;36505;52.512;13.460;2023-02-17T09:02:32;100900.88;;;9.13;92.02
50550;BME280;36505;52.512;13.460;2023-02-17T09:04:57;100897.81;;;9.21;92.40
50550;BME280;36505;52.512;13.460;2023-02-17T09:07:23;100886.06;;;9.20;92.32
50550;BME280;36505;52.512;13.460;2023-02-17T09:09:48;100889.84;;;9.19;92.37
50550;BME280;36505;52.512;13.460;2023-02-17T09:12:13;100879.16;;;9.18;92.52
50550;BME280;36505;52.512;13.460;2023-02-17T09:14:39;100875.47;;;9.24;92.77
50550;BME280;36505;52.512;13.460;2023-02-17T09:17:04;100866.22;;;9.25;93.01
50550;BME280;36505;52.512;13.460;2023-02-17T09:19:30;100869.69;;;9.32;92.83
50550;BME280;36505;52.512;13.460;2023-02-17T09:21:55;100861.13;;;9.28;92.79
50550;BME280;36505;52.512;13.460;2023-02-17T09:24:21;100859.81;;;9.31;92.91
50550;BME280;36505;52.512;13.460;2023-02-17T09:26:46;100851.28;;;9.27;92.82
50550;BME280;36505;52.512;13.460;2023-02-17T09:29:12;100848.75;;;9.26;93.12
50550;BME280;36505;52.512;13.460;2023-02-17T09:31:37;100845.44;;;9.24;93.39
50550;BME280;36505;52.512;13.460;2023-02-17T09:34:03;100848.53;;;9.27;93.23
50550;BME280;36505;52.512;13.460;2023-02-17T09:36:36;100846.03;;;9.26;93.12
50550;BME280;36505;52.512;13.460;2023-02-17T09:39:02;100830.00;;;9.29;93.26
50550;BME280;36505;52.512;13.460;2023-02-17T09:41:39;100830.38;;;9.33;93.41
50550;BME280;36505;52.512;13.460;2023-02-17T09:44:12;100812.31;;;9.32;93.38
50550;BME280;36505;52.512;13.460;2023-02-17T09:46:45;100819.22;;;9.34;93.55
50550;BME280;36505;52.512;13.460;2023-02-17T09:49:19;100816.22;;;9.36;93.75
50550;BME280;36505;52.512;13.460;2023-02-17T09:52:06;100813.75;;;9.34;93.56
50550;BME280;36505;52.512;13.460;2023-02-17T09:54:40;100805.16;;;9.31;93.63
50550;BME280;36505;52.512;13.460;2023-02-17T09:57:13;100805.66;;;9.28;94.16
50550;BME280;36505;52.512;13.460;2023-02-17T09:59:45;100801.72;;;9.24;94.37
50550;BME280;36505;52.512;13.460;2023-02-17T10:02:18;100800.19;;;9.28;94.69
50550;BME280;36505;52.512;13.460;2023-02-17T10:04:47;100791.00;;;9.22;95.01
50550;BME280;36505;52.512;13.460;2023-02-17T10:07:25;100790.66;;;9.19;94.92
50550;BME280;36505;52.512;13.460;2023-02-17T10:09:58;100790.75;;;9.12;95.79
50550;BME280;36505;52.512;13.460;2023-02-17T10:12:32;100788.03;;;9.12;96.09
50550;BME280;36505;52.512;13.460;2023-02-17T10:15:34;100782.91;;;9.16;95.51
50550;BME280;36505;52.512;13.460;2023-02-17T10:21:01;100775.09;;;9.07;96.34
50550;BME280;36505;52.512;13.460;2023-02-17T10:23:29;100774.25;;;9.07;96.84
50550;BME280;36505;52.512;13.460;2023-02-17T10:26:25;100769.63;;;9.07;97.28
50550;BME280;36505;52.512;13.460;2023-02-17T10:29:11;100751.06;;;9.09;97.34
50550;BME280;36505;52.512;13.460;2023-02-17T10:31:45;100754.03;;;9.08;97.50
50550;BME280;36505;52.512;13.460;2023-02-17T10:34:36;100747.38;;;9.04;97.66
50550;BME280;36505;52.512;13.460;2023-02-17T10:37:10;100729.09;;;9.04;97.79
50550;BME280;36505;52.512;13.460;2023-02-17T10:42:20;100731.13;;;9.09;97.29
50550;BME280;36505;52.512;13.460;2023-02-17T10:44:50;100730.88;;;9.10;97.42
50550;BME280;36505;52.512;13.460;2023-02-17T10:47:18;100712.59;;;9.11;97.40
50550;BME280;36505;52.512;13.460;2023-02-17T10:49:48;100712.94;;;9.15;97.37
50550;BME280;36505;52.512;13.460;2023-02-17T10:52:17;100719.50;;;9.14;97.18
50550;BME280;36505;52.512;13.460;2023-02-17T10:55:16;100708.31;;;9.15;97.20
50550;BME280;36505;52.512;13.460;2023-02-17T10:57:45;100697.16;;;9.17;97.04
50550;BME280;36505;52.512;13.460;2023-02-17T11:00:16;100689.56;;;9.19;97.23
50550;BME280;36505;52.512;13.460;2023-02-17T11:02:45;100697.06;;;9.23;96.66
50550;BME280;36505;52.512;13.460;2023-02-17T11:05:32;100693.03;;;9.26;96.87
50550;BME280;36505;52.512;13.460;2023-02-17T11:10:32;100677.34;;;9.33;96.20
50550;BME280;36505;52.512;13.460;2023-02-17T11:12:59;100660.34;;;9.31;96.29
50550;BME280;36505;52.512;13.460;2023-02-17T11:15:43;100642.06;;;9.31;96.06
50550;BME280;36505;52.512;13.460;2023-02-17T11:18:11;100648.69;;;9.35;95.72
50550;BME280;36505;52.512;13.460;2023-02-17T11:20:42;100636.47;;;9.38;95.67
50550;BME280;36505;52.512;13.460;2023-02-17T11:25:39;100615.19;;;9.40;95.72
50550;BME280;36505;52.512;13.460;2023-02-17T11:28:13;100619.09;;;9.44;95.54
50550;BME280;36505;52.512;13.460;2023-02-17T11:30:47;100610.66;;;9.45;95.52
50550;BME280;36505;52.512;13.460;2023-02-17T11:33:14;100612.09;;;9.48;95.42
50550;BME280;36505;52.512;13.460;2023-02-17T11:38:17;100605.91;;;9.52;95.13
50550;BME280;36505;52.512;13.460;2023-02-17T11:40:53;100605.41;;;9.56;95.01
50550;BME280;36505;52.512;13.460;2023-02-17T11:43:18;100592.94;;;9.60;94.73
50550;BME280;36505;52.512;13.460;2023-02-17T11:45:59;100581.88;;;9.66;94.51
50550;BME280;36505;52.512;13.460;2023-02-17T11:48:46;100581.47;;;9.74;94.23
50550;BME280;36505;52.512;13.460;2023-02-17T11:51:34;100556.03;;;9.74;94.10
50550;BME280;36505;52.512;13.460;2023-02-17T12:00:26;100529.63;;;9.79;93.71
50550;BME280;36505;52.512;13.460;2023-02-17T12:11:21;100520.03;;;9.94;92.18
50550;BME280;36505;52.512;13.460;2023-02-17T12:22:05;100501.06;;;10.04;91.74
50550;BME280;36505;52.512;13.460;2023-02-17T12:36:28;100457.34;;;10.20;90.93
50550;BME280;36505;52.512;13.460;2023-02-17T12:39:02;100467.81;;;10.23;90.56
50550;BME280;36505;52.512;13.460;2023-02-17T12:41:38;100468.19;;;10.32;90.18
50550;BME280;36505;52.512;13.460;2023-02-17T12:44:23;100458.16;;;10.38;89.66
50550;BME280;36505;52.512;13.460;2023-02-17T12:47:00;100454.09;;;10.40;89.59
50550;BME280;36505;52.512;13.460;2023-02-17T12:49:44;100442.72;;;10.48;89.64
50550;BME280;36505;52.512;13.460;2023-02-17T12:52:20;100448.28;;;10.53;89.15
50550;BME280;36505;52.512;13.460;2023-02-17T12:59:57;100441.59;;;10.66;88.55
50550;BME280;36505;52.512;13.460;2023-02-17T13:02:25;100444.09;;;10.67;88.13
50550;BME280;36505;52.512;13.460;2023-02-17T13:04:52;100439.94;;;10.65;88.13
50550;BME280;36505;52.512;13.460;2023-02-17T13:10:15;100453.72;;;10.70;88.30
50550;BME280;36505;52.512;13.460;2023-02-17T13:12:42;100443.03;;;10.68;88.05
50550;BME280;36505;52.512;13.460;2023-02-17T13:15:45;100428.56;;;10.73;88.31
50550;BME280;36505;52.512;13.460;2023-02-17T13:18:12;100425.34;;;10.76;87.90
50550;BME280;36505;52.512;13.460;2023-02-17T13:20:51;100416.88;;;10.78;88.03
50550;BME280;36505;52.512;13.460;2023-02-17T13:23:32;100418.50;;;10.79;87.44
50550;BME280;36505;52.512;13.460;2023-02-17T13:28:45;100422.47;;;10.88;87.51
50550;BME280;36505;52.512;13.460;2023-02-17T13:31:23;100413.75;;;10.91;87.44
50550;BME280;36505;52.512;13.460;2023-02-17T13:33:54;100394.25;;;10.87;87.38
50550;BME280;36505;52.512;13.460;2023-02-17T13:41:24;100391.13;;;11.00;87.29
50550;BME280;36505;52.512;13.460;2023-02-17T13:43:49;100400.81;;;11.08;86.95
50550;BME280;36505;52.512;13.460;2023-02-17T13:46:24;100392.59;;;11.08;86.44
50550;BME280;36505;52.512;13.460;2023-02-17T13:49:02;100379.22;;;11.12;86.46
50550;BME280;36505;52.512;13.460;2023-02-17T13:51:30;100367.91;;;11.08;86.48
50550;BME280;36505;52.512;13.460;2023-02-17T13:54:04;100382.84;;;11.17;86.31
50550;BME280;36505;52.512;13.460;2023-02-17T13:56:29;100381.22;;;11.21;85.96
50550;BME280;36505;52.512;13.460;2023-02-17T13:59:14;100383.97;;;11.21;86.11
50550;BME280;36505;52.512;13.460;2023-02-17T14:01:44;100387.28;;;11.23;86.08
50550;BME280;36505;52.512;13.460;2023-02-17T14:04:29;100389.44;;;11.21;85.99
50550;BME280;36505;52.512;13.460;2023-02-17T14:06:59;100397.47;;;11.28;85.73
50550;BME280;36505;52.512;13.460;2023-02-17T14:09:28;100399.69;;;11.31;85.95
50550;BME280;36505;52.512;13.460;2023-02-17T14:12:01;100395.56;;;11.28;85.79
50550;BME280;36505;52.512;13.460;2023-02-17T14:14:32;100406.56;;;11.33;85.71
50550;BME280;36505;52.512;13.460;2023-02-17T14:17:06;100398.88;;;11.30;85.90
50550;BME280;36505;52.512;13.460;2023-02-17T14:19:45;100394.78;;;11.33;85.84
50550;BME280;36505;52.512;13.460;2023-02-17T14:25:00;100415.13;;;11.37;85.53
50550;BME280;36505;52.512;13.460;2023-02-17T14:27:26;100406.63;;;11.38;85.56
50550;BME280;36505;52.512;13.460;2023-02-17T14:29:51;100406.63;;;11.38;85.41
50550;BME280;36505;52.512;13.460;2023-02-17T14:37:39;100414.34;;;11.41;86.28